Site contains unofficial IBTrACS data. Visit the IBTrACS Website to access archived data.

2000 Severe Tropical Cyclone STEVE (2000056S17152)


IBTrACS version v04r00. Visit IBTrACS website for data access.
Please direct all questions to the IBTrACS Q and A forum

Storm track - Intensity - Wind Radii - Intensity Data - Source Data - All data

Summary Information

Satellite image near maximum intensity
Storm ID 2000056S17152
Start Feb 25 00Z
Landfall Feb 27 09Z, Mar 1 00Z, Mar 6 15Z, Mar 9 12Z
Max Intensity 65 kt (Mar 6 06Z), 975 mb (Feb 27 09Z)
End Mar 11 22Z
ATCF IDs ,SH142000
Track status Best track data.

Storm track plot

Map of storm track

Intensity plots

Map of storm track

Radial wind information

Map of storm track

Position and Intensity Table

BASIN ISO_TIME_________ NATURE LAT LON WMO WIND WMO PRES USA WIND BOM WIND BOM PRES WELLINGTON WIND WELLINGTON PRES NEUMANN WIND
degrees north degrees east kts mb kts kts mb kts mb kts
SP 2000-02-25 00:00:00 NR -16.85 152.35 25 1004 25 1004 25 1003
SP 03:00:00 NR -16.69 151.97 25 1003 25 1002
SP 06:00:00 TS -16.54 151.38 25 1002 25 25 1002 25 1001 25
SP 09:00:00 TS -16.46 151.03 25 25 1002 25 1001 25
SP 12:00:00 TS -16.44 150.71 25 1002 25 25 1002 25 1001 25
SP 15:00:00 TS -16.48 150.46 25 27 1001 25 1001 25
SP 18:00:00 TS -16.52 150.23 30 1000 25 30 1000 25 1001 25
SP 21:00:00 TS -16.53 149.96 25 30 1000 25 1001 25
SP 2000-02-26 00:00:00 TS -16.52 149.68 30 1000 25 30 1000 25 1001 25
SP 03:00:00 TS -16.51 149.39 25 30 999 25 1001 25
SP 06:00:00 TS -16.50 149.10 30 998 25 30 998 25 1001 25
SP 09:00:00 TS -16.48 148.82 27 30 998 25 1000 27
SP 12:00:00 TS -16.48 148.52 30 998 30 30 998 25 1000 30
SP 15:00:00 TS -16.49 148.18 32 30 997 27 998 32
SP 18:00:00 TS -16.50 147.80 30 996 35 30 996 30 996 35
SP 21:00:00 TS -16.50 147.45 35 994 37 35 994 35 992 37
SP 2000-02-27 00:00:00 TS -16.50 147.05 40 988 40 40 988 40 988 40
SP 03:00:00 TS -16.50 146.58 40 45 984 47 984 40
SP 06:00:00 TS -16.55 146.05 50 980 40 50 980 55 980 40
SP 09:00:00 TS -16.69 145.51 60 975 37 60 975 60 975 37
SP 12:00:00 TS -16.75 144.85 40 990 35 40 990 40 990 35
SP 15:00:00 TS -16.97 144.35 30 995 32 30 995 35 995 32
SP 18:00:00 TS -17.15 143.60 30 999 30 30 999 30 999 30
SP 21:00:00 TS -17.29 143.08 27 30 1000 27 1000 27
SP 2000-02-28 00:00:00 TS -17.40 142.65 30 1002 25 30 1002 25 1002 25
SP 03:00:00 TS -17.52 142.13 25 30 1002 25 1002 25
SP 06:00:00 TS -17.55 141.60 30 1002 25 30 1002 25 1002 25
SP 09:00:00 TS -17.42 141.06 25 32 998 30 998 25
SP 12:00:00 TS -17.20 140.55 35 995 25 35 995 35 995 25
SP 15:00:00 TS -17.00 140.12 25 35 993 35 993 25
SP 18:00:00 TS -16.80 139.75 35 992 25 35 992 35 992 25
SP 21:00:00 TS -16.65 139.44 27 37 990 37 990 27
SP 2000-02-29 00:00:00 TS -16.50 139.15 40 988 30 40 988 40 988 30
SP 03:00:00 TS -16.32 138.83 32 40 988 40 988 32
SP 06:00:00 TS -16.15 138.50 40 988 35 40 988 40 988 35
SP 09:00:00 TS -15.99 138.20 37 40 988 40 988 37
SP 12:00:00 TS -15.86 137.87 40 40 988 40 988 40
SP 13:00:00 TS -15.82 137.76 40 988 40 40 988 41 987 40
SP 15:00:00 TS -15.76 137.50 42 40 986 45 986 42
SP 18:00:00 TS -15.70 137.10 40 985 45 40 985 50 985 45
SP 21:00:00 TS -15.67 136.69 40 985 40 40 985 50 985 40
SP 22:00:00 TS -15.68 136.58 40 985 38 40 985 50 985 38
SP 2000-03-01 00:00:00 TS -15.70 136.30 40 987 35 40 987 45 987 35
SP 03:00:00 TS -15.67 135.88 35 990 32 35 990 40 990 32
SP 06:00:00 TS -15.55 135.40 30 992 30 30 992 35 992 30
SI 09:00:00 TS -15.36 134.95 27 30 993 32 993 27
SI 12:00:00 TS -15.15 134.55 30 995 25 30 995 30 995 25
SI 15:00:00 TS -14.98 134.16 25 30 995 30 995 25
SI 18:00:00 TS -14.85 133.80 30 995 25 30 995 30 995 25
SI 21:00:00 TS -14.77 133.53 25 30 995 30 995 25
SI 2000-03-02 00:00:00 TS -14.75 133.20 30 995 25 30 995 30 996 25
SI 03:00:00 TS -14.78 132.67 25 30 994 30 994 25
SI 06:00:00 TS -14.80 132.10 30 993 25 30 993 30 993 25
SI 09:00:00 TS -14.75 131.62 25 30 993 30 993 25
SI 12:00:00 TS -14.70 131.20 30 994 25 30 994 30 994 25
SI 15:00:00 TS -14.67 130.84 25 30 993 30 993 25
SI 18:00:00 TS -14.70 130.50 30 992 25 30 992 30 992 25
SI 21:00:00 TS -14.79 130.11 25 30 993 30 993 25
SI 2000-03-03 00:00:00 TS -14.95 129.70 30 994 25 30 994 30 994 25
SI 03:00:00 TS -15.19 129.31 25 30 994 30 994 25
SI 06:00:00 TS -15.45 128.85 30 994 25 30 994 30 994 25
SI 09:00:00 TS -15.64 128.29 25 30 994 30 994 25
SI 12:00:00 TS -15.80 127.65 30 995 25 30 995 30 995 25
SI 15:00:00 TS -15.95 126.96 27 30 995 30 995 27
SI 18:00:00 TS -16.12 126.23 30 995 30 30 995 30 995 30
SI 21:00:00 TS -16.28 125.58 30 30 995 30 995 30
SI 2000-03-04 00:00:00 TS -16.51 124.94 30 995 30 30 995 30 995 30
SI 03:00:00 TS -16.89 124.25 30 30 995 30
SI 04:00:00 TS -16.99 124.04 30 995 30 30 995 30
SI 06:00:00 TS -17.14 123.68 30 30 995 30
SI 09:00:00 TS -17.30 123.22 30 30 995 30
SI 10:00:00 TS -17.35 123.08 30 995 30 30 995 30
SI 12:00:00 TS -17.46 122.78 30 30 993 30
SI 15:00:00 TS -17.61 122.34 30 30 990 30
SI 16:00:00 TS -17.66 122.20 30 990 30 30 990 30
SI 18:00:00 TS -17.78 121.91 30 33 990 30
SI 21:00:00 TS -17.96 121.48 32 38 990 32
SI 22:00:00 TS -18.03 121.33 40 990 33 40 990 33
SI 2000-03-05 00:00:00 TS -18.18 121.04 35 43 988 35
SI 03:00:00 TS -18.44 120.61 37 48 985 37
SI 04:00:00 TS -18.54 120.47 50 985 38 50 985 38
SI 06:00:00 TS -18.71 120.20 40 50 985 40
SI 09:00:00 TS -18.90 119.79 42 50 985 42
SI 10:00:00 TS -18.96 119.66 50 985 43 50 985 43
SI 12:00:00 TS -19.11 119.41 45 50 985 45
SI 13:00:00 TS -19.22 119.28 50 985 46 50 985 46
SI 15:00:00 TS -19.45 119.02 50 50 985 50
SI 16:00:00 TS -19.57 118.89 50 985 51 50 985 51
SI 18:00:00 TS -19.78 118.64 55 53 981 55
SI 19:00:00 TS -19.85 118.51 55 980 55 55 980 55
SI 21:00:00 TS -19.94 118.25 55 58 976 55
SI 22:00:00 TS -19.98 118.11 60 975 55 60 975 55
SI 2000-03-06 00:00:00 TS -20.04 117.81 55 60 975 55
SI 01:00:00 TS -20.08 117.64 60 975 56 60 975 56
SI 03:00:00 TS -20.16 117.30 60 60 975 60
SI 04:00:00 TS -20.21 117.14 60 975 61 60 975 61
SI 06:00:00 TS -20.31 116.86 65 60 975 65
SI 07:00:00 TS -20.37 116.75 60 975 65 60 975 65
SI 09:00:00 TS -20.49 116.58 65 60 975 65
SI 10:00:00 TS -20.56 116.49 60 975 65 60 975 65
SI 12:00:00 TS -20.76 116.25 65 60 975 65
SI 13:00:00 TS -20.88 116.12 60 975 63 60 975 63
SI 15:00:00 TS -21.12 115.88 60 56 978 60
SI 16:00:00 TS -21.25 115.77 55 980 58 55 980 58
SI 18:00:00 TS -21.50 115.56 55 55 980 55
SI 19:00:00 TS -21.62 115.49 55 980 55 55 980 55
SI 21:00:00 TS -21.87 115.39 55 55 980 55
SI 22:00:00 TS -22.00 115.34 55 980 55 55 980 55
SI 2000-03-07 00:00:00 TS -22.25 115.21 55 51 980 55
SI 01:00:00 TS -22.36 115.10 50 980 55 50 980 55
SI 03:00:00 TS -22.50 114.83 55 46 980 55
SI 04:00:00 TS -22.56 114.70 45 980 55 45 980 55
SI 06:00:00 TS -22.70 114.48 55 45 980 55
SI 07:00:00 TS -22.77 114.39 45 980 55 45 980 55
SI 09:00:00 TS -22.87 114.20 55 45 980 55
SI 10:00:00 TS -22.92 114.11 45 980 55 45 980 55
SI 12:00:00 TS -23.05 113.95 55 45 980 55
SI 13:00:00 TS -23.12 113.89 45 980 55 45 980 55
SI 15:00:00 TS -23.28 113.80 55 45 980 55
SI 16:00:00 TS -23.36 113.76 45 980 55 45 980 55
SI 18:00:00 TS -23.54 113.66 55 48 980 55
SI 19:00:00 TS -23.63 113.60 50 980 55 50 980 55
SI 21:00:00 TS -23.79 113.48 55 50 980 55
SI 22:00:00 TS -23.87 113.43 50 980 55 50 980 55
SI 2000-03-08 00:00:00 TS -24.00 113.37 55 50 980 55
SI 01:00:00 TS -24.07 113.34 50 980 54 50 980 54
SI 03:00:00 TS -24.25 113.27 52 50 980 52
SI 04:00:00 TS -24.34 113.23 50 980 51 50 980 51
SI 06:00:00 TS -24.50 113.15 50 50 980 50
SI 07:00:00 TS -24.57 113.12 50 980 50 50 980 50
SI 09:00:00 TS -24.69 113.08 50 50 980 50
SI 10:00:00 TS -24.74 113.08 50 980 50 50 980 50
SI 12:00:00 TS -24.88 113.12 50 50 980 50
SI 13:00:00 TS -24.95 113.15 50 980 50 50 980 50
SI 15:00:00 TS -25.04 113.21 50 50 980 50
SI 16:00:00 TS -25.09 113.24 50 980 50 50 980 50
SI 18:00:00 TS -25.19 113.30 50 50 980 50
SI 19:00:00 TS -25.23 113.33 50 980 49 50 980 49
SI 21:00:00 TS -25.29 113.44 47 50 980 47
SI 22:00:00 TS -25.32 113.50 50 980 46 50 980 46
SI 2000-03-09 00:00:00 TS -25.39 113.57 45 46 980 45
SI 01:00:00 TS -25.43 113.60 45 980 45 45 980 45
SI 03:00:00 TS -25.52 113.69 45 41 980 45
SI 04:00:00 TS -25.57 113.73 40 980 45 40 980 45
SI 06:00:00 TS -25.65 113.81 45 36 980 45
SI 07:00:00 TS -25.69 113.86 35 980 45 35 980 45
SI 09:00:00 TS -25.77 114.00 47 35 980 47
SI 10:00:00 TS -25.82 114.08 35 980 48 35 980 48
SI 12:00:00 TS -25.89 114.26 50 35 980 50
SI 13:00:00 TS -25.93 114.35 35 980 48 35 980 48
SI 15:00:00 TS -26.05 114.56 45 35 980 45
SI 16:00:00 TS -26.12 114.67 35 980 43 35 980 43
SI 18:00:00 TS -26.31 114.92 40 35 981 40
SI 21:00:00 TS -26.66 115.39 37 35 984 37
SI 22:00:00 TS -26.79 115.58 35 985 36 35 985 36
SI 2000-03-10 00:00:00 TS -27.07 115.98 35 35 985 35
SI 03:00:00 TS -27.50 116.61 35 35 985 35
SI 04:00:00 TS -27.65 116.83 35 985 35 35 985 35
SI 06:00:00 TS -27.95 117.30 35 36 986 35
SI 09:00:00 TS -28.44 118.08 32 39 989 32
SI 10:00:00 TS -28.62 118.34 40 990 31 40 990 31
SI 12:00:00 TS -28.99 118.83 30 40 990 30
SI 15:00:00 TS -29.52 119.50 27 40 990 27
SI 16:00:00 TS -29.71 119.72 40 990 26 40 990 26
SI 18:00:00 TS -30.15 120.14 25 40 990 25
SI 21:00:00 TS -30.97 120.80 22 40 990 22
SI 22:00:00 TS -31.25 121.07 40 990 21 40 990 21
SI 2000-03-11 00:00:00 TS -31.76 121.66 20 40 990 20
SI 03:00:00 NR -32.28 122.81 40 990
SI 04:00:00 NR -32.50 123.10 40 990 40 990
SI 06:00:00 NR -32.97 123.67 40 990
SI 09:00:00 NR -33.68 124.46 40 990
SI 10:00:00 NR -33.90 124.70 40 990 40 990
SI 12:00:00 NR -34.28 125.15 40 990
SI 15:00:00 NR -34.86 125.78 40 990
SI 16:00:00 NR -35.10 126.00 40 990 40 990
SI 18:00:00 NR -35.66 126.47 38 991
SI 21:00:00 NR -36.65 127.23 35 994
SI 22:00:00 NR -37.00 127.50 35 995 35 995

Source Information

Agency Information
USA bsh142000.txt
TOKYO
CMA
HKO
NEWDELHI
REUNION
BOM IDCKMSTM0S.csv:Line=20563:STEVE
NADI
WELLINGTON TC_BT_1967_2006.csv:Line=6644:STEVE
DS824
TD9636
TD9635
NEUMANN tracks.sh:Storm=1189:STEVE:14S:BSH142000
MLC

All available IBTrACS Data

SEASON BASIN SUBBASIN ISO_TIME_________ NATURE LAT LON WMO WIND WMO PRES WMO AGENCY DIST2LAND LANDFALL IFLAG USA AGENCY USA ATCF_ID USA LAT USA LON USA WIND USA SSHS BOM LAT BOM LON BOM TYPE BOM WIND BOM PRES BOM CI BOM ROCI BOM POS_METHOD WELLINGTON LAT WELLINGTON LON WELLINGTON WIND WELLINGTON PRES NEUMANN LAT NEUMANN LON NEUMANN CLASS NEUMANN WIND STORM SPEED STORM DIR
Year degrees north degrees east kts mb km km degrees north degrees east kts 1 degrees north degrees east kts mb 1 nmile degrees north degrees east kts mb degrees north degrees east kts kts degrees
2000 SP EA 2000-02-25 00:00:00 NR -16.85 152.35 25 1004 bom 545 523 ______O_O_____ -1 -16.50 151.70 20 25 1004 1.50 7 -17.20 153.00 25 1003 8 293
2000 SP EA 03:00:00 NR -16.69 151.97 525 496 ______P_P_____ -1 -16.50 151.45 20 25 1003 -16.89 152.48 25 1002 10 289
2000 SP EA 06:00:00 TS -16.54 151.38 25 1002 bom 505 484 O_____O_O___O_ jtwc_sh SH142000 -16.50 150.70 25 -1 -16.50 151.20 20 25 1002 1.50 7 -16.60 152.00 25 1001 -16.50 150.70 TC 25 9 284
2000 SP EA 09:00:00 TS -16.46 151.03 484 475 P_____P_P___P_ SH142000 -16.50 150.55 25 -1 -16.50 150.95 20 25 1002 -16.38 151.58 25 1001 -16.50 150.55 TC 25 6 278
2000 SP EA 12:00:00 TS -16.44 150.71 25 1002 bom 475 455 O_____O_O___O_ jtwc_sh SH142000 -16.50 150.40 25 -1 -16.50 150.70 20 25 1002 1.50 7 -16.30 151.20 25 1001 -16.50 150.40 TC 25 5 268
2000 SP EA 15:00:00 TS -16.48 150.46 455 439 P_____P_P___P_ SH142000 -16.50 150.25 25 -1 -16.50 150.45 20 27 1001 -16.43 150.87 25 1001 -16.50 150.25 TC 25 5 260
2000 SP EA 18:00:00 TS -16.52 150.23 30 1000 bom 439 425 O_____O_O___O_ jtwc_sh SH142000 -16.50 150.10 25 -1 -16.50 150.20 20 30 1000 2.00 7 -16.60 150.50 25 1001 -16.50 150.10 TC 25 5 264
2000 SP EA 21:00:00 TS -16.53 149.96 425 396 P_____P_P___P_ SH142000 -16.50 149.97 25 -1 -16.50 149.96 20 30 1000 -16.63 149.93 25 1001 -16.50 149.97 TC 25 5 270
2000 SP EA 2000-02-26 00:00:00 TS -16.52 149.68 30 1000 bom 396 365 O_____O_O___O_ jtwc_sh SH142000 -16.50 149.80 25 -1 -16.50 149.70 20 30 1000 2.00 7 -16.60 149.40 25 1001 -16.50 149.80 TC 25 5 272
2000 SP EA 03:00:00 TS -16.51 149.39 365 334 P_____P_P___P_ SH142000 -16.50 149.52 25 -1 -16.50 149.35 20 30 999 -16.56 149.16 25 1001 -16.50 149.52 TC 25 6 273
2000 SP EA 06:00:00 TS -16.50 149.10 30 998 bom 334 304 O_____O_O___O_ jtwc_sh SH142000 -16.50 149.20 25 -1 -16.50 149.00 20 30 998 2.50 7 -16.50 149.00 25 1001 -16.50 149.20 TC 25 5 273
2000 SP EA 09:00:00 TS -16.48 148.82 304 274 P_____P_P___P_ SH142000 -16.50 148.91 27 -1 -16.50 148.75 20 30 998 -16.43 148.73 25 1000 -16.50 148.91 TC 27 6 273
2000 SP EA 12:00:00 TS -16.48 148.52 30 998 bom 274 245 O_____O_O___O_ jtwc_sh SH142000 -16.50 148.60 30 -1 -16.50 148.50 20 30 998 2.50 7 -16.40 148.40 25 1000 -16.50 148.60 TC 30 6 270
2000 SP EA 15:00:00 TS -16.49 148.18 245 207 P_____P_P___P_ SH142000 -16.50 148.26 32 -1 -16.50 148.17 20 30 997 -16.44 148.00 27 998 -16.50 148.26 TC 32 7 268
2000 SP EA 18:00:00 TS -16.50 147.80 30 996 bom 207 179 O_____O_O___O_ jtwc_sh SH142000 -16.50 147.90 35 0 -16.50 147.80 20 30 996 2.50 7 -16.50 147.60 30 996 -16.50 147.90 TC 35 7 269
2000 SP EA 21:00:00 TS -16.50 147.45 35 994 bom 169 139 P_____O_P___P_ SH142000 -16.50 147.54 37 0 -16.50 147.40 30 35 994 3.00 7 -16.50 147.29 35 992 -16.50 147.54 TC 37 7 270
2000 SP EA 2000-02-27 00:00:00 TS -16.50 147.05 40 988 bom 139 93 O_____O_O___O_ jtwc_sh SH142000 -16.50 147.10 40 0 -16.50 147.00 30 40 988 3.00 106 7 -16.50 147.00 40 988 -16.50 147.10 TC 40 8 270
2000 SP EA 03:00:00 TS -16.50 146.58 93 54 P_____P_P___P_ SH142000 -16.49 146.47 40 0 -16.51 146.67 30 45 984 106 -16.51 146.69 47 984 -16.49 146.47 TC 40 10 267
2000 SP EA 06:00:00 TS -16.55 146.05 50 980 bom 54 0 O_____O_O___O_ jtwc_sh SH142000 -16.50 145.80 40 0 -16.60 146.30 30 50 980 3.50 106 7 -16.60 146.30 55 980 -16.50 145.80 TC 40 10 259
2000 SP EA 09:00:00 TS -16.69 145.51 60 975 bom 0 0 P_____O_O___P_ SH142000 -16.58 145.23 37 0 -16.80 145.80 30 60 975 4.00 97 7 -16.80 145.80 60 975 -16.58 145.23 TC 37 12 260
2000 SP EA 12:00:00 TS -16.75 144.85 40 990 bom 0 0 O_____O_O___O_ jtwc_sh SH142000 -16.70 144.70 35 0 -16.80 145.00 30 40 990 97 7 -16.80 145.00 40 990 -16.70 144.70 TC 35 12 256
2000 SP EA 15:00:00 TS -16.97 144.35 30 995 bom 0 0 P_____O_O___P_ SH142000 -16.84 144.19 32 -1 -17.10 144.50 20 30 995 106 7 -17.10 144.50 35 995 -16.84 144.19 TC 32 13 251
2000 SP EA 18:00:00 TS -17.15 143.60 30 999 bom 0 0 O_____O_O___O_ jtwc_sh SH142000 -17.00 143.70 30 -1 -17.30 143.50 20 30 999 129 7 -17.30 143.50 30 999 -17.00 143.70 TC 30 13 255
2000 SP EA 21:00:00 TS -17.29 143.08 0 0 P_____P_P___P_ SH142000 -17.15 143.20 27 -1 -17.43 142.95 20 30 1000 144 -17.43 142.95 27 1000 -17.15 143.20 TC 27 9 255
2000 SP EA 2000-02-28 00:00:00 TS -17.40 142.65 30 1002 bom 0 0 O_____O_O___O_ jtwc_sh SH142000 -17.30 142.70 25 -1 -17.50 142.60 20 30 1002 160 7 -17.50 142.60 25 1002 -17.30 142.70 TC 25 9 256
2000 SP EA 03:00:00 TS -17.52 142.13 0 0 P_____P_P___P_ SH142000 -17.49 142.20 25 -1 -17.54 142.07 20 30 1002 160 -17.54 142.07 25 1002 -17.49 142.20 TC 25 10 261
2000 SP EA 06:00:00 TS -17.55 141.60 30 1002 bom 0 0 O_____O_O___O_ jtwc_sh SH142000 -17.60 141.70 25 -1 -17.50 141.50 20 30 1002 160 7 -17.50 141.50 25 1002 -17.60 141.70 TC 25 10 276
2000 SP EA 09:00:00 TS -17.42 141.06 0 0 P_____P_P___P_ SH142000 -17.50 141.18 25 -1 -17.33 140.93 20 32 998 144 -17.33 140.93 30 998 -17.50 141.18 TC 25 11 289
2000 SP EA 12:00:00 TS -17.20 140.55 35 995 bom 38 46 O_____O_O___O_ jtwc_sh SH142000 -17.30 140.70 25 -1 -17.10 140.40 30 35 995 3.00 129 7 -17.10 140.40 35 995 -17.30 140.70 TC 25 10 295
2000 SP EA 15:00:00 TS -17.00 140.12 74 64 P_____P_P___P_ SH142000 -17.11 140.28 25 -1 -16.88 139.96 30 35 993 129 -16.88 139.96 35 993 -17.11 140.28 TC 25 9 298
2000 SP EA 18:00:00 TS -16.80 139.75 35 992 bom 67 46 O_____O_O___O_ jtwc_sh SH142000 -16.90 139.90 25 -1 -16.70 139.60 30 35 992 3.00 129 7 -16.70 139.60 35 992 -16.90 139.90 TC 25 7 298
2000 SP EA 21:00:00 TS -16.65 139.44 49 39 P_____P_P___P_ SH142000 -16.70 139.54 27 -1 -16.59 139.34 30 37 990 129 -16.59 139.34 37 990 -16.70 139.54 TC 27 6 298
2000 SP EA 2000-02-29 00:00:00 TS -16.50 139.15 40 988 bom 49 46 O_____O_O___O_ jtwc_sh SH142000 -16.50 139.20 30 -1 -16.50 139.10 30 40 988 3.00 129 7 -16.50 139.10 40 988 -16.50 139.20 TC 30 7 299
2000 SP EA 03:00:00 TS -16.32 138.83 59 56 P_____P_P___P_ SH142000 -16.29 138.85 32 -1 -16.35 138.80 30 40 988 129 -16.36 138.81 40 988 -16.29 138.85 TC 32 7 299
2000 SP EA 06:00:00 TS -16.15 138.50 40 988 bom 77 57 O_____O_O___O_ jtwc_sh SH142000 -16.10 138.50 35 0 -16.20 138.50 30 40 988 3.00 129 7 -16.20 138.50 40 988 -16.10 138.50 TC 35 7 299
2000 SP EA 09:00:00 TS -15.99 138.20 57 39 P_____P_P___P_ SH142000 -15.93 138.17 37 0 -16.07 138.25 30 40 988 -16.04 138.20 40 988 -15.93 138.17 TC 37 7 296
2000 SP EA 12:00:00 TS -15.86 137.87 39 39 O_____P_O___O_ jtwc_sh SH142000 -15.80 137.80 40 0 -15.94 138.00 30 40 988 -15.90 137.90 40 988 -15.80 137.80 TC 40 7 292
2000 SP EA 13:00:00 TS -15.82 137.76 40 988 bom 46 35 P_____O_P___P_ SH142000 -15.77 137.66 40 0 -15.90 137.90 30 40 988 3.00 7 -15.86 137.81 41 987 -15.77 137.66 TC 40 7 285
2000 SP EA 15:00:00 TS -15.76 137.50 35 33 P_____P_P___P_ SH142000 -15.72 137.36 42 0 -15.82 137.68 30 40 986 -15.79 137.62 45 986 -15.72 137.36 TC 42 8 281
2000 SP EA 18:00:00 TS -15.70 137.10 40 985 bom 33 11 O_____O_O___O_ jtwc_sh SH142000 -15.70 136.90 45 0 -15.70 137.30 30 40 985 3.00 7 -15.70 137.30 50 985 -15.70 136.90 TC 45 8 277
2000 SP EA 21:00:00 TS -15.67 136.69 40 985 bom 11 10 P_____O_O___P_ SH142000 -15.74 136.49 40 0 -15.60 136.90 30 40 985 3.00 7 -15.60 136.90 50 985 -15.74 136.49 TC 40 8 272
2000 SP EA 22:00:00 TS -15.68 136.58 40 985 bom 10 0 P_____O_O___P_ SH142000 -15.76 136.35 38 0 -15.60 136.80 30 40 985 3.00 7 -15.60 136.80 50 985 -15.76 136.35 TC 38 8 266
2000 SP EA 2000-03-01 00:00:00 TS -15.70 136.30 40 987 bom 0 0 O_____O_O___O_ jtwc_sh SH142000 -15.80 136.10 35 0 -15.60 136.50 30 40 987 3.00 7 -15.60 136.50 45 987 -15.80 136.10 TC 35 8 271
2000 SP EA 03:00:00 TS -15.67 135.88 35 990 bom 0 0 P_____O_O___P_ SH142000 -15.84 135.76 32 -1 -15.50 136.00 30 35 990 3.00 -15.50 136.00 40 990 -15.84 135.76 TC 32 9 280
2000 SP EA 06:00:00 TS -15.55 135.40 30 992 bom 0 0 O_____O_O___O_ jtwc_sh SH142000 -15.80 135.40 30 -1 -15.30 135.40 20 30 992 -15.30 135.40 35 992 -15.80 135.40 TC 30 9 290
2000 SI WA 09:00:00 TS -15.36 134.95 0 0 P_____P_P___P_ SH142000 -15.59 134.95 27 -1 -15.13 134.96 20 30 993 -15.13 134.96 32 993 -15.59 134.95 TC 27 9 296
2000 SI WA 12:00:00 TS -15.15 134.55 30 995 bom 0 0 O_____O_O___O_ jtwc_sh SH142000 -15.30 134.50 25 -1 -15.00 134.60 20 30 995 -15.00 134.60 30 995 -15.30 134.50 TC 25 9 296
2000 SI WA 15:00:00 TS -14.98 134.16 0 0 P_____P_P___P_ SH142000 -15.02 134.14 25 -1 -14.93 134.20 20 30 995 -14.94 134.14 30 995 -15.02 134.14 TC 25 8 293
2000 SI WA 18:00:00 TS -14.85 133.80 30 995 bom 0 0 O_____O_O___O_ jtwc_sh SH142000 -14.80 133.80 25 -1 -14.90 133.80 20 30 995 -14.90 133.80 30 995 -14.80 133.80 TC 25 6 288
2000 SI WA 21:00:00 TS -14.77 133.53 0 0 P_____P_P___P_ SH142000 -14.70 133.42 25 -1 -14.85 133.40 20 30 995 -14.85 133.86 30 995 -14.70 133.42 TC 25 6 280
2000 SI WA 2000-03-02 00:00:00 TS -14.75 133.20 30 995 bom 0 0 O_____O_O___O_ jtwc_sh SH142000 -14.70 133.00 25 -1 -14.80 133.00 20 30 995 -14.80 133.80 30 996 -14.70 133.00 TC 25 8 270
2000 SI WA 03:00:00 TS -14.78 132.67 0 0 P_____P_P___P_ SH142000 -14.80 132.50 25 -1 -14.75 132.62 20 30 994 -14.75 133.07 30 994 -14.80 132.50 TC 25 11 267
2000 SI WA 06:00:00 TS -14.80 132.10 30 993 bom 0 0 O_____O_O___O_ jtwc_sh SH142000 -14.90 132.00 25 -1 -14.70 132.20 20 30 993 -14.70 132.20 30 993 -14.90 132.00 TC 25 10 271
2000 SI WA 09:00:00 TS -14.75 131.62 0 0 P_____P_P___P_ SH142000 -14.87 131.58 25 -1 -14.64 131.69 20 30 993 -14.63 131.63 30 993 -14.87 131.58 TC 25 9 277
2000 SI WA 12:00:00 TS -14.70 131.20 30 994 bom 0 0 O_____O_O___O_ jtwc_sh SH142000 -14.80 131.20 25 -1 -14.60 131.20 20 30 994 -14.60 131.20 30 994 -14.80 131.20 TC 25 8 276
2000 SI WA 15:00:00 TS -14.67 130.84 0 0 P_____P_P___P_ SH142000 -14.72 130.86 25 -1 -14.63 130.82 20 30 993 -14.63 130.82 30 993 -14.72 130.86 TC 25 7 270
2000 SI WA 18:00:00 TS -14.70 130.50 30 992 bom 0 0 O_____O_O___O_ jtwc_sh SH142000 -14.70 130.50 25 -1 -14.70 130.50 20 30 992 -14.70 130.50 30 992 -14.70 130.50 TC 25 7 261
2000 SI WA 21:00:00 TS -14.79 130.11 0 0 P_____P_P___P_ SH142000 -14.79 130.02 25 -1 -14.78 130.20 20 30 993 -14.78 130.20 30 993 -14.79 130.02 TC 25 8 252
2000 SI WA 2000-03-03 00:00:00 TS -14.95 129.70 30 994 bom 0 0 O_____O_O___O_ jtwc_sh SH142000 -15.00 129.50 25 -1 -14.90 129.90 20 30 994 -14.90 129.90 30 994 -15.00 129.50 TC 25 9 243
2000 SI WA 03:00:00 TS -15.19 129.31 0 0 P_____P_P___P_ SH142000 -15.34 129.02 25 -1 -15.04 129.59 20 30 994 -15.04 129.59 30 994 -15.34 129.02 TC 25 10 239
2000 SI WA 06:00:00 TS -15.45 128.85 30 994 bom 0 0 O_____O_O___O_ jtwc_sh SH142000 -15.70 128.50 25 -1 -15.20 129.20 20 30 994 -15.20 129.20 30 994 -15.70 128.50 TC 25 11 245
2000 SI WA 09:00:00 TS -15.64 128.29 0 0 P_____P_P___P_ SH142000 -15.93 127.92 25 -1 -15.35 128.66 20 30 994 -15.35 128.66 30 994 -15.93 127.92 TC 25 12 253
2000 SI WA 12:00:00 TS -15.80 127.65 30 995 bom 0 0 O_____O_O___O_ jtwc_sh SH142000 -16.10 127.30 25 -1 -15.50 128.00 20 30 995 -15.50 128.00 30 995 -16.10 127.30 TC 25 13 256
2000 SI WA 15:00:00 TS -15.95 126.96 0 0 P_____P_P___P_ SH142000 -16.26 126.64 27 -1 -15.64 127.27 20 30 995 -15.64 127.27 30 995 -16.26 126.64 TC 27 14 257
2000 SI WA 18:00:00 TS -16.12 126.23 30 995 bom 0 0 O_____O_O___O_ jtwc_sh SH142000 -16.40 126.00 30 -1 -15.80 126.50 20 30 995 -15.80 126.50 30 995 -16.40 126.00 TC 30 14 256
2000 SI WA 21:00:00 TS -16.28 125.58 0 0 P_____P_P___P_ SH142000 -16.55 125.43 30 -1 -15.89 125.78 20 30 995 -15.99 125.74 30 995 -16.55 125.43 TC 30 13 253
2000 SI WA 2000-03-04 00:00:00 TS -16.51 124.94 30 995 bom 0 0 O_____O_O___O_ jtwc_sh SH142000 -16.70 124.90 30 -1 -16.20 125.00 20 30 995 -16.20 125.00 30 995 -16.70 124.90 TC 30 14 245
2000 SI WA 03:00:00 TS -16.89 124.25 0 0 P_____P_____P_ SH142000 -16.84 124.34 30 -1 -16.97 124.07 20 30 995 -16.84 124.34 TC 30 15 241
2000 SI WA 04:00:00 TS -16.99 124.04 30 995 bom 0 0 P_____O_____P_ SH142000 -16.89 124.16 30 -1 -17.20 123.80 20 30 995 2 -16.89 124.16 TC 30 12 245
2000 SI WA 06:00:00 TS -17.14 123.68 0 0 O_____P_____O_ jtwc_sh SH142000 -17.00 123.80 30 -1 -17.41 123.44 20 30 995 -17.00 123.80 TC 30 10 249
2000 SI WA 09:00:00 TS -17.30 123.22 0 0 P_____P_____P_ SH142000 -17.20 123.29 30 -1 -17.49 123.10 20 30 995 -17.20 123.29 TC 30 9 250
2000 SI WA 10:00:00 TS -17.35 123.08 30 995 bom 0 0 P_____O_____P_ SH142000 -17.27 123.12 30 -1 -17.50 123.00 20 30 995 2 -17.27 123.12 TC 30 9 248
2000 SI WA 12:00:00 TS -17.46 122.78 0 0 O_____P_____O_ jtwc_sh SH142000 -17.40 122.80 30 -1 -17.59 122.73 20 30 993 -17.40 122.80 TC 30 9 249
2000 SI WA 15:00:00 TS -17.61 122.34 0 0 P_____P_____P_ SH142000 -17.55 122.34 30 -1 -17.74 122.33 20 30 990 -17.55 122.34 TC 30 9 250
2000 SI WA 16:00:00 TS -17.66 122.20 30 990 bom 0 0 P_____O_____P_ SH142000 -17.60 122.19 30 -1 -17.80 122.20 20 30 990 2 -17.60 122.19 TC 30 9 248
2000 SI WA 18:00:00 TS -17.78 121.91 30 30 O_____P_____O_ jtwc_sh SH142000 -17.70 121.90 30 -1 -17.93 121.93 20 33 990 -17.70 121.90 TC 30 9 247
2000 SI WA 21:00:00 TS -17.96 121.48 61 61 P_____P_____P_ SH142000 -17.88 121.45 32 -1 -18.13 121.53 20 38 990 -17.88 121.45 TC 32 9 245
2000 SI WA 22:00:00 TS -18.03 121.33 40 990 bom 76 69 P_____O_____P_ SH142000 -17.95 121.30 33 -1 -18.20 121.40 30 40 990 3.00 349 3 -17.95 121.30 TC 33 9 243
2000 SI WA 2000-03-05 00:00:00 TS -18.18 121.04 86 86 O_____P_____O_ jtwc_sh SH142000 -18.10 121.00 35 0 -18.33 121.12 30 43 988 349 -18.10 121.00 TC 35 10 239
2000 SI WA 03:00:00 TS -18.44 120.61 118 114 P_____P_____P_ SH142000 -18.40 120.55 37 0 -18.53 120.72 30 48 985 349 -18.40 120.55 TC 37 10 237
2000 SI WA 04:00:00 TS -18.54 120.47 50 985 bom 122 118 P_____O_____P_ SH142000 -18.50 120.40 38 0 -18.60 120.60 30 50 985 3.50 349 3 -18.50 120.40 TC 38 9 236
2000 SI WA 06:00:00 TS -18.71 120.20 123 116 O_____P_____O_ jtwc_sh SH142000 -18.70 120.10 40 0 -18.73 120.39 30 50 985 349 -18.70 120.10 TC 40 9 240
2000 SI WA 09:00:00 TS -18.90 119.79 119 112 P_____P_____P_ SH142000 -18.88 119.63 42 0 -18.93 120.10 30 50 985 349 -18.88 119.63 TC 42 9 244
2000 SI WA 10:00:00 TS -18.96 119.66 50 985 bom 112 105 P_____O_____P_ SH142000 -18.95 119.48 43 0 -19.00 120.00 30 50 985 3.50 349 3 -18.95 119.48 TC 43 8 240
2000 SI WA 12:00:00 TS -19.11 119.41 109 100 O_____P_____O_ jtwc_sh SH142000 -19.10 119.20 45 0 -19.13 119.82 30 50 985 349 -19.10 119.20 TC 45 9 234
2000 SI WA 13:00:00 TS -19.22 119.28 50 985 bom 100 78 P_____O_____P_ SH142000 -19.23 119.07 46 0 -19.20 119.70 30 50 985 3.50 349 3 -19.23 119.07 TC 46 10 227
2000 SI WA 15:00:00 TS -19.45 119.02 67 59 P_____P_____P_ SH142000 -19.51 118.84 50 0 -19.33 119.37 30 50 985 349 -19.51 118.84 TC 50 10 226
2000 SI WA 16:00:00 TS -19.57 118.89 50 985 bom 59 53 P_____O_____P_ SH142000 -19.66 118.73 51 0 -19.40 119.20 30 50 985 3.50 349 3 -19.66 118.73 TC 51 10 228
2000 SI WA 18:00:00 TS -19.78 118.64 61 61 O_____P_____O_ jtwc_sh SH142000 -19.90 118.50 55 0 -19.53 118.93 30 53 981 349 -19.90 118.50 TC 55 9 232
2000 SI WA 19:00:00 TS -19.85 118.51 55 980 bom 67 55 P_____O_____P_ SH142000 -19.97 118.37 55 0 -19.60 118.80 30 55 980 4.00 349 6 -19.97 118.37 TC 55 8 246
2000 SI WA 21:00:00 TS -19.94 118.25 55 44 P_____P_____P_ SH142000 -20.04 118.11 55 0 -19.73 118.55 30 58 976 349 -20.04 118.11 TC 55 8 251
2000 SI WA 22:00:00 TS -19.98 118.11 60 975 bom 44 44 P_____O_____P_ SH142000 -20.07 117.97 55 0 -19.80 118.40 30 60 975 4.00 349 6 -20.07 117.97 TC 55 9 256
2000 SI WA 2000-03-06 00:00:00 TS -20.04 117.81 54 45 O_____P_____O_ jtwc_sh SH142000 -20.10 117.70 55 0 -19.93 118.02 30 60 975 349 -20.10 117.70 TC 55 9 257
2000 SI WA 01:00:00 TS -20.08 117.64 60 975 bom 54 54 P_____O_____P_ SH142000 -20.13 117.56 56 0 -20.00 117.80 30 60 975 4.00 349 6 -20.13 117.56 TC 56 10 256
2000 SI WA 03:00:00 TS -20.16 117.30 56 54 P_____P_____P_ SH142000 -20.18 117.29 60 0 -20.13 117.32 30 60 975 349 -20.18 117.29 TC 60 10 255
2000 SI WA 04:00:00 TS -20.21 117.14 60 975 bom 54 35 P_____O_____P_ SH142000 -20.21 117.16 61 0 -20.20 117.10 30 60 975 4.00 349 6 -20.21 117.16 TC 61 9 250
2000 SI WA 06:00:00 TS -20.31 116.86 35 22 O_____P_____O_ jtwc_sh SH142000 -20.30 116.90 65 1 -20.34 116.79 30 60 975 349 -20.30 116.90 TC 65 8 245
2000 SI WA 07:00:00 TS -20.37 116.75 60 975 bom 22 15 P_____O_____P_ SH142000 -20.36 116.78 65 1 -20.40 116.70 30 60 975 4.00 349 6 -20.36 116.78 TC 65 6 237
2000 SI WA 09:00:00 TS -20.49 116.58 15 15 P_____P_____P_ SH142000 -20.50 116.54 65 1 -20.46 116.64 30 60 975 349 -20.50 116.54 TC 65 6 233
2000 SI WA 10:00:00 TS -20.56 116.49 60 975 bom 15 15 P_____O_____P_ SH142000 -20.59 116.43 65 1 -20.50 116.60 30 60 975 4.00 349 6 -20.59 116.43 TC 65 8 228
2000 SI WA 12:00:00 TS -20.76 116.25 11 10 O_____P_____O_ jtwc_sh SH142000 -20.80 116.20 65 1 -20.69 116.34 30 60 975 349 -20.80 116.20 TC 65 9 227
2000 SI WA 13:00:00 TS -20.88 116.12 60 975 bom 10 0 P_____O_____P_ SH142000 -20.92 116.07 63 0 -20.80 116.20 30 60 975 4.00 349 6 -20.92 116.07 TC 63 10 224
2000 SI WA 15:00:00 TS -21.12 115.88 0 0 P_____P_____P_ SH142000 -21.19 115.82 60 0 -21.00 115.99 30 56 978 349 -21.19 115.82 TC 60 10 221
2000 SI WA 16:00:00 TS -21.25 115.77 55 980 bom 0 0 P_____O_____P_ SH142000 -21.33 115.70 58 0 -21.10 115.90 30 55 980 4.00 349 6 -21.33 115.70 TC 58 10 218
2000 SI WA 18:00:00 TS -21.50 115.56 0 0 O_____P_____O_ jtwc_sh SH142000 -21.60 115.50 55 0 -21.29 115.69 30 55 980 349 -21.60 115.50 TC 55 9 215
2000 SI WA 19:00:00 TS -21.62 115.49 55 980 bom 0 0 P_____O_____P_ SH142000 -21.73 115.44 55 0 -21.40 115.60 30 55 980 349 6 -21.73 115.44 TC 55 8 203
2000 SI WA 21:00:00 TS -21.87 115.39 0 0 P_____P_____P_ SH142000 -21.98 115.35 55 0 -21.65 115.47 30 55 980 349 -21.98 115.35 TC 55 8 201
2000 SI WA 22:00:00 TS -22.00 115.34 55 980 bom 0 0 P_____O_____P_ SH142000 -22.10 115.31 55 0 -21.80 115.40 30 55 980 349 6 -22.10 115.31 TC 55 8 204
2000 SI WA 2000-03-07 00:00:00 TS -22.25 115.21 0 0 O_____P_____O_ jtwc_sh SH142000 -22.30 115.20 55 0 -22.15 115.22 30 51 980 349 -22.30 115.20 TC 55 8 211
2000 SI WA 01:00:00 TS -22.36 115.10 50 980 bom 0 0 P_____O_____P_ SH142000 -22.39 115.10 55 0 -22.30 115.10 30 50 980 349 6 -22.39 115.10 TC 55 9 234
2000 SI WA 03:00:00 TS -22.50 114.83 0 0 P_____P_____P_ SH142000 -22.53 114.87 55 0 -22.44 114.75 30 46 980 349 -22.53 114.87 TC 55 9 241
2000 SI WA 04:00:00 TS -22.56 114.70 45 980 bom 0 0 P_____O_____P_ SH142000 -22.59 114.75 55 0 -22.50 114.60 30 45 980 349 6 -22.59 114.75 TC 55 8 238
2000 SI WA 06:00:00 TS -22.70 114.48 0 0 O_____P_____O_ jtwc_sh SH142000 -22.70 114.50 55 0 -22.70 114.45 30 45 980 349 -22.70 114.50 TC 55 7 234
2000 SI WA 07:00:00 TS -22.77 114.39 45 980 bom 0 0 P_____O_____P_ SH142000 -22.75 114.39 55 0 -22.80 114.40 30 45 980 349 6 -22.75 114.39 TC 55 6 237
2000 SI WA 09:00:00 TS -22.87 114.20 0 0 P_____P_____P_ SH142000 -22.84 114.17 55 0 -22.94 114.27 30 45 980 349 -22.84 114.17 TC 55 6 239
2000 SI WA 10:00:00 TS -22.92 114.11 45 980 bom 0 0 P_____O_____P_ SH142000 -22.88 114.07 55 0 -23.00 114.20 30 45 980 349 6 -22.88 114.07 TC 55 6 232
2000 SI WA 12:00:00 TS -23.05 113.95 0 0 O_____P_____O_ jtwc_sh SH142000 -23.00 113.90 55 0 -23.14 114.06 30 45 980 349 -23.00 113.90 TC 55 6 225
2000 SI WA 13:00:00 TS -23.12 113.89 45 980 bom 0 0 P_____O_____P_ SH142000 -23.09 113.83 55 0 -23.20 114.00 30 45 980 349 6 -23.09 113.83 TC 55 5 212
2000 SI WA 15:00:00 TS -23.28 113.80 0 0 P_____P_____P_ SH142000 -23.28 113.73 55 0 -23.26 113.94 30 45 980 349 -23.28 113.73 TC 55 5 208
2000 SI WA 16:00:00 TS -23.36 113.76 45 980 bom 0 10 P_____O_____P_ SH142000 -23.39 113.68 55 0 -23.30 113.90 30 45 980 349 6 -23.39 113.68 TC 55 6 206
2000 SI WA 18:00:00 TS -23.54 113.66 10 10 O_____P_____O_ jtwc_sh SH142000 -23.60 113.60 55 0 -23.43 113.77 30 48 980 349 -23.60 113.60 TC 55 6 208
2000 SI WA 19:00:00 TS -23.63 113.60 50 980 bom 15 10 P_____O_____P_ SH142000 -23.69 113.55 55 0 -23.50 113.70 30 50 980 3.50 349 6 -23.69 113.55 TC 55 6 213
2000 SI WA 21:00:00 TS -23.79 113.48 10 10 P_____P_____P_ SH142000 -23.87 113.44 55 0 -23.63 113.55 30 50 980 349 -23.87 113.44 TC 55 6 213
2000 SI WA 22:00:00 TS -23.87 113.43 50 980 bom 10 10 P_____O_____P_ SH142000 -23.95 113.39 55 0 -23.70 113.50 30 50 980 3.50 349 6 -23.95 113.39 TC 55 5 206
2000 SI WA 2000-03-08 00:00:00 TS -24.00 113.37 10 10 O_____P_____O_ jtwc_sh SH142000 -24.10 113.30 55 0 -23.81 113.50 30 50 980 349 -24.10 113.30 TC 55 4 201
2000 SI WA 01:00:00 TS -24.07 113.34 50 980 bom 20 20 P_____O_____P_ SH142000 -24.16 113.26 54 0 -23.90 113.50 30 50 980 3.50 349 6 -24.16 113.26 TC 54 5 200
2000 SI WA 03:00:00 TS -24.25 113.27 20 15 P_____P_____P_ SH142000 -24.26 113.18 52 0 -24.22 113.45 30 50 980 349 -24.26 113.18 TC 52 6 200
2000 SI WA 04:00:00 TS -24.34 113.23 50 980 bom 23 20 P_____O_____P_ SH142000 -24.30 113.15 51 0 -24.40 113.40 30 50 980 3.50 349 6 -24.30 113.15 TC 51 5 203
2000 SI WA 06:00:00 TS -24.50 113.15 23 23 O_____P_____O_ jtwc_sh SH142000 -24.40 113.10 50 0 -24.70 113.26 30 50 980 349 -24.40 113.10 TC 50 5 201
2000 SI WA 07:00:00 TS -24.57 113.12 50 980 bom 37 37 P_____O_____P_ SH142000 -24.46 113.08 50 0 -24.80 113.20 30 50 980 3.50 349 6 -24.46 113.08 TC 50 4 201
2000 SI WA 09:00:00 TS -24.69 113.08 45 45 P_____P_____P_ SH142000 -24.59 113.07 50 0 -24.88 113.11 30 50 980 349 -24.59 113.07 TC 50 3 195
2000 SI WA 10:00:00 TS -24.74 113.08 50 980 bom 45 50 P_____O_____P_ SH142000 -24.66 113.07 50 0 -24.90 113.10 30 50 980 3.50 349 6 -24.66 113.07 TC 50 4 170
2000 SI WA 12:00:00 TS -24.88 113.12 50 50 O_____P_____O_ jtwc_sh SH142000 -24.80 113.10 50 0 -25.04 113.16 30 50 980 349 -24.80 113.10 TC 50 4 166
2000 SI WA 13:00:00 TS -24.95 113.15 50 980 bom 50 41 P_____O_____P_ SH142000 -24.87 113.12 50 0 -25.10 113.20 30 50 980 3.50 349 6 -24.87 113.12 TC 50 4 154
2000 SI WA 15:00:00 TS -25.04 113.21 41 41 P_____P_____P_ SH142000 -25.01 113.18 50 0 -25.10 113.27 30 50 980 349 -25.01 113.18 TC 50 3 147
2000 SI WA 16:00:00 TS -25.09 113.24 50 980 bom 46 37 P_____O_____P_ SH142000 -25.08 113.21 50 0 -25.10 113.30 30 50 980 3.50 349 6 -25.08 113.21 TC 50 3 151
2000 SI WA 18:00:00 TS -25.19 113.30 41 41 O_____P_____O_ jtwc_sh SH142000 -25.20 113.30 50 0 -25.16 113.29 30 50 980 349 -25.20 113.30 TC 50 3 152
2000 SI WA 19:00:00 TS -25.23 113.33 50 980 bom 41 32 P_____O_____P_ SH142000 -25.24 113.34 49 0 -25.20 113.30 30 50 980 3.50 349 6 -25.24 113.34 TC 49 3 130
2000 SI WA 21:00:00 TS -25.29 113.44 34 30 P_____P_____P_ SH142000 -25.31 113.44 47 0 -25.27 113.44 30 50 980 349 -25.31 113.44 TC 47 4 122
2000 SI WA 22:00:00 TS -25.32 113.50 50 980 bom 30 22 P_____O_____P_ SH142000 -25.34 113.49 46 0 -25.30 113.50 30 50 980 3.50 349 6 -25.34 113.49 TC 46 3 130
2000 SI WA 2000-03-09 00:00:00 TS -25.39 113.57 24 24 O_____P_____O_ jtwc_sh SH142000 -25.40 113.60 45 0 -25.37 113.50 30 46 980 349 -25.40 113.60 TC 45 3 139
2000 SI WA 01:00:00 TS -25.43 113.60 45 980 bom 24 15 P_____O_____P_ SH142000 -25.45 113.65 45 0 -25.40 113.50 30 45 980 3.00 349 6 -25.45 113.65 TC 45 3 143
2000 SI WA 03:00:00 TS -25.52 113.69 22 15 P_____P_____P_ SH142000 -25.55 113.75 45 0 -25.47 113.56 30 41 980 349 -25.55 113.75 TC 45 4 139
2000 SI WA 04:00:00 TS -25.57 113.73 40 980 bom 15 15 P_____O_____P_ SH142000 -25.60 113.80 45 0 -25.50 113.60 30 40 980 3.00 349 6 -25.60 113.80 TC 45 3 139
2000 SI WA 06:00:00 TS -25.65 113.81 14 14 O_____P_____O_ jtwc_sh SH142000 -25.70 113.90 45 0 -25.56 113.64 30 36 980 349 -25.70 113.90 TC 45 3 138
2000 SI WA 07:00:00 TS -25.69 113.86 35 980 bom 22 20 P_____O_____P_ SH142000 -25.73 113.94 45 0 -25.60 113.70 30 35 980 3.00 349 6 -25.73 113.94 TC 45 4 127
2000 SI WA 09:00:00 TS -25.77 114.00 20 10 P_____P_____P_ SH142000 -25.79 114.02 47 0 -25.74 113.95 30 35 980 349 -25.79 114.02 TC 47 5 123
2000 SI WA 10:00:00 TS -25.82 114.08 35 980 bom 10 0 P_____O_____P_ SH142000 -25.82 114.07 48 0 -25.80 114.10 21 35 980 3.00 349 6 -25.82 114.07 TC 48 5 116
2000 SI WA 12:00:00 TS -25.89 114.26 0 0 O_____P_____O_ jtwc_sh SH142000 -25.90 114.20 50 0 -25.86 114.37 21 35 980 349 -25.90 114.20 TC 50 5 115
2000 SI WA 13:00:00 TS -25.93 114.35 35 980 bom 0 0 P_____O_____P_ SH142000 -25.95 114.28 48 0 -25.90 114.50 35 980 3.00 349 6 -25.95 114.28 TC 48 6 121
2000 SI WA 15:00:00 TS -26.05 114.56 0 0 P_____P_____P_ SH142000 -26.06 114.48 45 0 -26.02 114.71 35 980 349 -26.06 114.48 TC 45 7 124
2000 SI WA 16:00:00 TS -26.12 114.67 35 980 bom 0 0 P_____O_____P_ SH142000 -26.13 114.61 43 0 -26.10 114.80 35 980 349 6 -26.13 114.61 TC 43 8 128
2000 SI WA 18:00:00 TS -26.31 114.92 0 0 O_____P_____O_ jtwc_sh SH142000 -26.30 114.90 40 0 -26.32 114.97 35 981 349 -26.30 114.90 TC 40 10 130
2000 SI WA 21:00:00 TS -26.66 115.39 0 0 P_____P_____P_ SH142000 -26.61 115.46 37 0 -26.75 115.27 35 984 349 -26.61 115.46 TC 37 11 130
2000 SI WA 22:00:00 TS -26.79 115.58 35 985 bom 0 0 P_____O_____P_ SH142000 -26.73 115.67 36 0 -26.90 115.40 35 985 349 2 -26.73 115.67 TC 36 13 128
2000 SI WA 2000-03-10 00:00:00 TS -27.07 115.98 0 0 O_____P_____O_ jtwc_sh SH142000 -27.00 116.10 35 0 -27.20 115.73 35 985 349 -27.00 116.10 TC 35 14 128
2000 SI WA 03:00:00 TS -27.50 116.61 0 0 P_____P_____P_ SH142000 -27.42 116.73 35 0 -27.65 116.36 35 985 349 -27.42 116.73 TC 35 14 128
2000 SI WA 04:00:00 TS -27.65 116.83 35 985 bom 0 0 P_____O_____P_ SH142000 -27.57 116.95 35 0 -27.80 116.60 35 985 349 2 -27.57 116.95 TC 35 15 126
2000 SI WA 06:00:00 TS -27.95 117.30 0 0 O_____P_____O_ jtwc_sh SH142000 -27.90 117.40 35 0 -28.05 117.11 36 986 349 -27.90 117.40 TC 35 16 126
2000 SI WA 09:00:00 TS -28.44 118.08 0 0 P_____P_____P_ SH142000 -28.44 118.16 32 -1 -28.45 117.93 39 989 349 -28.44 118.16 TC 32 17 126
2000 SI WA 10:00:00 TS -28.62 118.34 40 990 bom 0 0 P_____O_____P_ SH142000 -28.62 118.41 31 -1 -28.60 118.20 40 990 349 2 -28.62 118.41 TC 31 17 130
2000 SI WA 12:00:00 TS -28.99 118.83 0 0 O_____P_____O_ jtwc_sh SH142000 -29.00 118.90 30 -1 -28.96 118.70 40 990 349 -29.00 118.90 TC 30 16 132
2000 SI WA 15:00:00 TS -29.52 119.50 0 0 P_____P_____P_ SH142000 -29.49 119.53 27 -1 -29.58 119.45 40 990 349 -29.49 119.53 TC 27 16 133
2000 SI WA 16:00:00 TS -29.71 119.72 40 990 bom 0 0 P_____O_____P_ SH142000 -29.67 119.73 26 -1 -29.80 119.70 40 990 349 2 -29.67 119.73 TC 26 17 139
2000 SI WA 18:00:00 TS -30.15 120.14 0 0 O_____P_____O_ jtwc_sh SH142000 -30.10 120.10 25 -1 -30.26 120.22 40 990 349 -30.10 120.10 TC 25 19 143
2000 SI WA 21:00:00 TS -30.97 120.80 0 0 P_____P_____P_ SH142000 -30.97 120.65 22 -1 -30.97 121.02 40 990 349 -30.97 120.65 TC 22 20 144
2000 SI WA 22:00:00 TS -31.25 121.07 40 990 bom 0 0 P_____O_____P_ SH142000 -31.30 120.83 21 -1 -31.20 121.30 40 990 349 2 -31.30 120.83 TC 21 22 137
2000 SI WA 2000-03-11 00:00:00 TS -31.76 121.66 0 0 O_____P_____O_ jtwc_sh SH142000 -32.00 121.20 20 -1 -31.64 121.90 40 990 349 -32.00 121.20 TC 20 22 125
2000 SI WA 03:00:00 NR -32.28 122.81 0 0 ______P_______ SH142000 -1 -32.28 122.81 40 990 349 TC 21 121
2000 SI WA 04:00:00 NR -32.50 123.10 40 990 bom 0 0 ______O_______ SH142000 -1 -32.50 123.10 40 990 349 3 TC 20 134
2000 SI WA 06:00:00 NR -32.97 123.67 0 0 ______P_______ -1 -32.97 123.67 40 990 349 20 136
2000 SI WA 09:00:00 NR -33.68 124.46 47 47 ______P_______ -1 -33.68 124.46 40 990 349 19 137
2000 SI WA 10:00:00 NR -33.90 124.70 40 990 bom 72 72 ______O_______ -1 -33.90 124.70 40 990 349 3 17 136
2000 SI WA 12:00:00 NR -34.28 125.15 127 127 ______P_______ -1 -34.28 125.15 40 990 349 16 137
2000 SI WA 15:00:00 NR -34.86 125.78 219 219 ______P_______ -1 -34.86 125.78 40 990 349 16 140
2000 SI WA 16:00:00 NR -35.10 126.00 40 990 bom 248 248 ______O_______ -1 -35.10 126.00 40 990 349 3 19 145
2000 SI WA 18:00:00 NR -35.66 126.47 326 326 ______P_______ -1 -35.66 126.47 38 991 349 22 147
2000 SI WA 21:00:00 NR -36.65 127.23 451 451 ______P_______ -1 -36.65 127.23 35 994 349 24 148
2000 SI WA 22:00:00 NR -37.00 127.50 35 995 bom 493 ______O_______ -1 -37.00 127.50 35 995 349 3 25 149